CheckWX is a tool to help pilots better visualize weather data.  It is not intended as a substitute for an official pre-flight weather briefing.

02:09:44 UTC

KMNN METAR
Marion Municipal Airport
Marion, Ohio, USA
Current

17 mins ago

KMNN 180153Z AUTO 32004KT 5SM BR OVC006 M02/M03 A2976 RMK AO2 SLP090 T10171028
Observed
Feb-18 @ 01:53 UTC
Wind
  • 320° at 4 KTS
Visibility
5 SM
Flight Rules
IFR
Conditions
Mist
Cloud Levels
  • Overcast at 600' AGL
Temperature
-2°C / 28°F
Dewpoint
-3°C / 27°F
Humidity
93%
Altimeter
29.76" Hg
Pressure
1009 hPa
Previous

1 hour ago

KMNN 180053Z AUTO 06003KT 4SM BR OVC007 M02/M03 A2974 RMK AO2 CIG 005V009 SLP084 T10171028
Observed
Feb-18 @ 00:53 UTC
Wind
  • 060° at 3 KTS
Visibility
4 SM
Flight Rules
IFR
Conditions
Mist
Cloud Levels
  • Overcast at 700' AGL
Temperature
-2°C / 28°F
Dewpoint
-3°C / 27°F
Humidity
93%
Altimeter
29.74" Hg
Pressure
1008.4 hPa
Previous

2 hours ago

KMNN 172353Z AUTO 03006KT 4SM BR OVC006 M02/M03 A2974 RMK AO2 FZRAE2257 CIG 004V009 SLP083 P0000 60005 I1000 I6003 T10171028 11006 21017 53001
Observed
Feb-17 @ 23:53 UTC
Wind
  • 030° at 6 KTS
Visibility
4 SM
Flight Rules
IFR
Conditions
Mist
Cloud Levels
  • Overcast at 600' AGL
Temperature
-2°C / 28°F
Dewpoint
-3°C / 27°F
Humidity
93%
Altimeter
29.74" Hg
Pressure
1008.3 hPa
Current Rain
0.01"